Terminal Aerodrome Forecast
Issued by NWS

Home | Current Version | Previous Version | Text Only | Print | Product List | Glossary On
Versions: 1 2 3 4 5 6 7 8 9 10 11 12 13 14 15 16 17
000
FTUS43 KABR 032324
TAFATY
TAF
KATY 032324Z 0400/0424 15010KT P6SM SCT250
      TEMPO 0409/0413 3SM BR
     FM041800 17014KT P6SM BKN250 PROB30 0418/0424 P6SM TS BKN050CB=

USA.gov is the U.S. government's official web portal to all federal, state and local government web resources and services.